sensor_id;sensor_type;location;lat;lon;timestamp;P1;durP1;ratioP1;P2;durP2;ratioP2
41897;SDS011;27576;53.366;-1.498;2023-08-06T00:00:45;5.22;;;3.70;;
41897;SDS011;27576;53.366;-1.498;2023-08-06T00:03:11;4.93;;;3.72;;
41897;SDS011;27576;53.366;-1.498;2023-08-06T00:05:36;6.60;;;3.65;;
41897;SDS011;27576;53.366;-1.498;2023-08-06T00:08:01;5.93;;;3.72;;
41897;SDS011;27576;53.366;-1.498;2023-08-06T00:10:27;7.15;;;3.80;;
41897;SDS011;27576;53.366;-1.498;2023-08-06T00:12:52;4.90;;;3.63;;
41897;SDS011;27576;53.366;-1.498;2023-08-06T00:15:18;6.93;;;3.88;;
41897;SDS011;27576;53.366;-1.498;2023-08-06T00:17:43;11.73;;;3.85;;
41897;SDS011;27576;53.366;-1.498;2023-08-06T00:20:09;5.97;;;3.55;;
41897;SDS011;27576;53.366;-1.498;2023-08-06T00:22:35;5.82;;;3.55;;
41897;SDS011;27576;53.366;-1.498;2023-08-06T00:25:02;4.82;;;3.47;;
41897;SDS011;27576;53.366;-1.498;2023-08-06T00:27:28;6.28;;;3.33;;
41897;SDS011;27576;53.366;-1.498;2023-08-06T00:29:54;8.98;;;3.97;;
41897;SDS011;27576;53.366;-1.498;2023-08-06T00:32:20;7.90;;;4.10;;
41897;SDS011;27576;53.366;-1.498;2023-08-06T00:34:45;6.18;;;3.75;;
41897;SDS011;27576;53.366;-1.498;2023-08-06T00:37:11;6.22;;;4.22;;
41897;SDS011;27576;53.366;-1.498;2023-08-06T00:39:36;6.88;;;3.92;;
41897;SDS011;27576;53.366;-1.498;2023-08-06T00:42:02;5.85;;;3.85;;
41897;SDS011;27576;53.366;-1.498;2023-08-06T00:44:27;4.05;;;3.45;;
41897;SDS011;27576;53.366;-1.498;2023-08-06T00:46:53;6.45;;;3.50;;
41897;SDS011;27576;53.366;-1.498;2023-08-06T00:49:18;4.65;;;3.92;;
41897;SDS011;27576;53.366;-1.498;2023-08-06T00:51:44;4.68;;;3.40;;
41897;SDS011;27576;53.366;-1.498;2023-08-06T00:54:09;5.63;;;3.83;;
41897;SDS011;27576;53.366;-1.498;2023-08-06T00:56:35;5.80;;;3.78;;
41897;SDS011;27576;53.366;-1.498;2023-08-06T00:59:02;6.10;;;3.65;;
41897;SDS011;27576;53.366;-1.498;2023-08-06T01:01:31;3.88;;;3.42;;
41897;SDS011;27576;53.366;-1.498;2023-08-06T01:03:57;5.75;;;3.55;;
41897;SDS011;27576;53.366;-1.498;2023-08-06T01:06:45;9.57;;;4.13;;
41897;SDS011;27576;53.366;-1.498;2023-08-06T01:17:35;5.53;;;3.72;;
41897;SDS011;27576;53.366;-1.498;2023-08-06T01:20:01;6.07;;;3.65;;
41897;SDS011;27576;53.366;-1.498;2023-08-06T01:22:27;4.63;;;3.85;;
41897;SDS011;27576;53.366;-1.498;2023-08-06T01:24:52;5.53;;;3.75;;
41897;SDS011;27576;53.366;-1.498;2023-08-06T01:30:27;5.22;;;3.90;;
41897;SDS011;27576;53.366;-1.498;2023-08-06T01:32:58;5.57;;;3.40;;
41897;SDS011;27576;53.366;-1.498;2023-08-06T01:35:28;5.78;;;3.60;;
41897;SDS011;27576;53.366;-1.498;2023-08-06T01:37:54;5.65;;;3.80;;
41897;SDS011;27576;53.366;-1.498;2023-08-06T01:40:21;5.55;;;4.05;;
41897;SDS011;27576;53.366;-1.498;2023-08-06T01:42:46;6.97;;;3.92;;
41897;SDS011;27576;53.366;-1.498;2023-08-06T01:45:12;5.70;;;3.60;;
41897;SDS011;27576;53.366;-1.498;2023-08-06T01:47:37;5.65;;;3.40;;
41897;SDS011;27576;53.366;-1.498;2023-08-06T01:50:03;7.10;;;3.58;;
41897;SDS011;27576;53.366;-1.498;2023-08-06T01:52:28;5.47;;;3.70;;
41897;SDS011;27576;53.366;-1.498;2023-08-06T01:54:54;6.50;;;4.35;;
41897;SDS011;27576;53.366;-1.498;2023-08-06T01:57:19;6.43;;;3.33;;
41897;SDS011;27576;53.366;-1.498;2023-08-06T01:59:45;7.75;;;3.45;;
41897;SDS011;27576;53.366;-1.498;2023-08-06T02:02:10;5.22;;;3.40;;
41897;SDS011;27576;53.366;-1.498;2023-08-06T02:04:35;5.70;;;3.53;;
41897;SDS011;27576;53.366;-1.498;2023-08-06T02:07:01;5.78;;;3.45;;
41897;SDS011;27576;53.366;-1.498;2023-08-06T02:09:26;8.88;;;3.60;;
41897;SDS011;27576;53.366;-1.498;2023-08-06T02:11:51;4.47;;;3.38;;
41897;SDS011;27576;53.366;-1.498;2023-08-06T02:14:17;5.55;;;3.78;;
41897;SDS011;27576;53.366;-1.498;2023-08-06T02:16:42;7.68;;;4.18;;
41897;SDS011;27576;53.366;-1.498;2023-08-06T02:19:07;11.18;;;3.53;;
41897;SDS011;27576;53.366;-1.498;2023-08-06T02:21:33;5.75;;;3.90;;
41897;SDS011;27576;53.366;-1.498;2023-08-06T02:23:58;6.03;;;3.90;;
41897;SDS011;27576;53.366;-1.498;2023-08-06T02:26:24;5.13;;;3.35;;
41897;SDS011;27576;53.366;-1.498;2023-08-06T02:28:49;6.68;;;3.80;;
41897;SDS011;27576;53.366;-1.498;2023-08-06T02:31:14;5.47;;;3.38;;
41897;SDS011;27576;53.366;-1.498;2023-08-06T02:33:40;6.20;;;3.70;;
41897;SDS011;27576;53.366;-1.498;2023-08-06T02:36:05;3.83;;;3.13;;
41897;SDS011;27576;53.366;-1.498;2023-08-06T02:38:31;3.40;;;3.10;;
41897;SDS011;27576;53.366;-1.498;2023-08-06T02:40:56;6.00;;;3.50;;
41897;SDS011;27576;53.366;-1.498;2023-08-06T02:43:22;5.13;;;3.78;;
41897;SDS011;27576;53.366;-1.498;2023-08-06T02:45:47;6.85;;;3.80;;
41897;SDS011;27576;53.366;-1.498;2023-08-06T02:48:13;7.22;;;3.63;;
41897;SDS011;27576;53.366;-1.498;2023-08-06T02:50:38;4.15;;;3.47;;
41897;SDS011;27576;53.366;-1.498;2023-08-06T02:53:05;4.80;;;3.40;;
41897;SDS011;27576;53.366;-1.498;2023-08-06T02:55:31;5.38;;;3.65;;
41897;SDS011;27576;53.366;-1.498;2023-08-06T02:57:57;5.93;;;3.72;;
41897;SDS011;27576;53.366;-1.498;2023-08-06T03:00:22;5.70;;;3.78;;
41897;SDS011;27576;53.366;-1.498;2023-08-06T03:02:47;5.70;;;3.88;;
41897;SDS011;27576;53.366;-1.498;2023-08-06T03:05:13;5.22;;;3.65;;
41897;SDS011;27576;53.366;-1.498;2023-08-06T03:07:38;4.30;;;3.58;;
41897;SDS011;27576;53.366;-1.498;2023-08-06T03:10:03;5.93;;;3.88;;
41897;SDS011;27576;53.366;-1.498;2023-08-06T03:12:29;6.25;;;3.58;;
41897;SDS011;27576;53.366;-1.498;2023-08-06T03:14:54;6.32;;;3.60;;
41897;SDS011;27576;53.366;-1.498;2023-08-06T03:17:20;5.28;;;3.70;;
41897;SDS011;27576;53.366;-1.498;2023-08-06T03:19:45;6.90;;;3.70;;
41897;SDS011;27576;53.366;-1.498;2023-08-06T03:22:10;5.28;;;3.67;;
41897;SDS011;27576;53.366;-1.498;2023-08-06T03:24:36;11.95;;;3.30;;
41897;SDS011;27576;53.366;-1.498;2023-08-06T03:27:01;4.72;;;3.40;;
41897;SDS011;27576;53.366;-1.498;2023-08-06T03:29:27;6.05;;;3.53;;
41897;SDS011;27576;53.366;-1.498;2023-08-06T03:31:52;5.07;;;3.58;;
41897;SDS011;27576;53.366;-1.498;2023-08-06T03:34:18;4.53;;;3.58;;
41897;SDS011;27576;53.366;-1.498;2023-08-06T03:36:43;5.40;;;3.78;;
41897;SDS011;27576;53.366;-1.498;2023-08-06T03:39:08;6.78;;;3.90;;
41897;SDS011;27576;53.366;-1.498;2023-08-06T03:41:34;4.63;;;3.53;;
41897;SDS011;27576;53.366;-1.498;2023-08-06T03:43:59;6.60;;;3.42;;
41897;SDS011;27576;53.366;-1.498;2023-08-06T03:46:27;7.15;;;3.85;;
41897;SDS011;27576;53.366;-1.498;2023-08-06T03:48:53;5.28;;;3.80;;
41897;SDS011;27576;53.366;-1.498;2023-08-06T03:51:18;3.95;;;3.45;;
41897;SDS011;27576;53.366;-1.498;2023-08-06T03:53:44;4.63;;;3.67;;
41897;SDS011;27576;53.366;-1.498;2023-08-06T03:56:09;4.70;;;3.70;;
41897;SDS011;27576;53.366;-1.498;2023-08-06T03:58:34;4.97;;;3.58;;
41897;SDS011;27576;53.366;-1.498;2023-08-06T04:01:00;5.00;;;3.55;;
41897;SDS011;27576;53.366;-1.498;2023-08-06T04:03:26;8.57;;;3.67;;
41897;SDS011;27576;53.366;-1.498;2023-08-06T04:05:52;5.78;;;3.67;;
41897;SDS011;27576;53.366;-1.498;2023-08-06T04:08:17;3.10;;;2.80;;
41897;SDS011;27576;53.366;-1.498;2023-08-06T04:10:43;5.88;;;3.55;;
41897;SDS011;27576;53.366;-1.498;2023-08-06T04:13:08;4.38;;;3.40;;
41897;SDS011;27576;53.366;-1.498;2023-08-06T04:15:33;6.88;;;3.53;;
41897;SDS011;27576;53.366;-1.498;2023-08-06T04:17:59;5.90;;;3.55;;
41897;SDS011;27576;53.366;-1.498;2023-08-06T04:20:24;7.38;;;3.83;;
41897;SDS011;27576;53.366;-1.498;2023-08-06T04:22:50;4.38;;;3.33;;
41897;SDS011;27576;53.366;-1.498;2023-08-06T04:25:15;7.18;;;3.50;;
41897;SDS011;27576;53.366;-1.498;2023-08-06T04:27:45;5.97;;;3.33;;
41897;SDS011;27576;53.366;-1.498;2023-08-06T04:30:11;6.72;;;3.50;;
41897;SDS011;27576;53.366;-1.498;2023-08-06T04:32:37;7.18;;;3.60;;
41897;SDS011;27576;53.366;-1.498;2023-08-06T04:35:04;7.78;;;4.13;;
41897;SDS011;27576;53.366;-1.498;2023-08-06T04:37:29;5.03;;;3.55;;
41897;SDS011;27576;53.366;-1.498;2023-08-06T04:39:54;5.70;;;4.13;;
41897;SDS011;27576;53.366;-1.498;2023-08-06T04:42:20;4.38;;;3.60;;
41897;SDS011;27576;53.366;-1.498;2023-08-06T04:44:45;5.30;;;3.42;;
41897;SDS011;27576;53.366;-1.498;2023-08-06T04:47:10;8.75;;;4.40;;
41897;SDS011;27576;53.366;-1.498;2023-08-06T04:49:36;5.60;;;3.67;;
41897;SDS011;27576;53.366;-1.498;2023-08-06T04:52:01;5.45;;;3.65;;
41897;SDS011;27576;53.366;-1.498;2023-08-06T04:54:26;3.78;;;3.33;;
41897;SDS011;27576;53.366;-1.498;2023-08-06T04:56:52;7.38;;;3.72;;
41897;SDS011;27576;53.366;-1.498;2023-08-06T04:59:17;6.45;;;3.38;;
41897;SDS011;27576;53.366;-1.498;2023-08-06T05:01:43;4.60;;;4.20;;
41897;SDS011;27576;53.366;-1.498;2023-08-06T05:04:08;6.68;;;3.80;;
41897;SDS011;27576;53.366;-1.498;2023-08-06T05:06:33;5.53;;;3.63;;
41897;SDS011;27576;53.366;-1.498;2023-08-06T05:08:59;4.63;;;3.08;;
41897;SDS011;27576;53.366;-1.498;2023-08-06T05:11:24;4.05;;;3.08;;
41897;SDS011;27576;53.366;-1.498;2023-08-06T05:13:50;7.07;;;3.95;;
41897;SDS011;27576;53.366;-1.498;2023-08-06T05:16:15;4.32;;;3.22;;
41897;SDS011;27576;53.366;-1.498;2023-08-06T05:18:41;4.88;;;3.78;;
41897;SDS011;27576;53.366;-1.498;2023-08-06T05:21:06;4.45;;;3.08;;
41897;SDS011;27576;53.366;-1.498;2023-08-06T05:23:32;6.32;;;3.78;;
41897;SDS011;27576;53.366;-1.498;2023-08-06T05:25:57;5.05;;;3.63;;
41897;SDS011;27576;53.366;-1.498;2023-08-06T05:28:23;6.50;;;3.53;;
41897;SDS011;27576;53.366;-1.498;2023-08-06T05:30:48;4.80;;;3.88;;
41897;SDS011;27576;53.366;-1.498;2023-08-06T05:33:14;4.53;;;3.50;;
41897;SDS011;27576;53.366;-1.498;2023-08-06T05:35:40;3.63;;;3.30;;
41897;SDS011;27576;53.366;-1.498;2023-08-06T05:38:07;7.10;;;3.65;;
41897;SDS011;27576;53.366;-1.498;2023-08-06T05:40:35;5.25;;;3.40;;
41897;SDS011;27576;53.366;-1.498;2023-08-06T05:43:00;3.50;;;3.20;;
41897;SDS011;27576;53.366;-1.498;2023-08-06T05:45:26;5.57;;;3.65;;
41897;SDS011;27576;53.366;-1.498;2023-08-06T05:47:51;10.93;;;3.63;;
41897;SDS011;27576;53.366;-1.498;2023-08-06T05:50:18;3.95;;;3.45;;
41897;SDS011;27576;53.366;-1.498;2023-08-06T05:52:44;4.43;;;3.75;;
41897;SDS011;27576;53.366;-1.498;2023-08-06T05:55:10;8.15;;;3.50;;
41897;SDS011;27576;53.366;-1.498;2023-08-06T05:57:35;4.60;;;3.80;;
41897;SDS011;27576;53.366;-1.498;2023-08-06T06:00:01;5.68;;;3.60;;
41897;SDS011;27576;53.366;-1.498;2023-08-06T06:02:27;5.35;;;3.60;;
41897;SDS011;27576;53.366;-1.498;2023-08-06T06:04:53;3.65;;;3.28;;
41897;SDS011;27576;53.366;-1.498;2023-08-06T06:07:18;5.43;;;2.97;;
41897;SDS011;27576;53.366;-1.498;2023-08-06T06:09:43;5.80;;;3.40;;
41897;SDS011;27576;53.366;-1.498;2023-08-06T06:12:09;3.92;;;3.22;;
41897;SDS011;27576;53.366;-1.498;2023-08-06T06:14:35;4.00;;;3.55;;
41897;SDS011;27576;53.366;-1.498;2023-08-06T06:17:00;3.55;;;2.90;;
41897;SDS011;27576;53.366;-1.498;2023-08-06T06:19:26;4.22;;;2.85;;
41897;SDS011;27576;53.366;-1.498;2023-08-06T06:21:51;5.65;;;3.47;;
41897;SDS011;27576;53.366;-1.498;2023-08-06T06:24:18;4.35;;;2.97;;
41897;SDS011;27576;53.366;-1.498;2023-08-06T06:26:43;4.72;;;3.53;;
41897;SDS011;27576;53.366;-1.498;2023-08-06T06:29:08;4.57;;;3.15;;
41897;SDS011;27576;53.366;-1.498;2023-08-06T06:31:34;3.92;;;3.20;;
41897;SDS011;27576;53.366;-1.498;2023-08-06T06:33:59;4.97;;;2.85;;
41897;SDS011;27576;53.366;-1.498;2023-08-06T06:36:24;4.07;;;2.85;;
41897;SDS011;27576;53.366;-1.498;2023-08-06T06:38:50;3.53;;;2.90;;
41897;SDS011;27576;53.366;-1.498;2023-08-06T06:41:15;5.72;;;3.22;;
41897;SDS011;27576;53.366;-1.498;2023-08-06T06:43:40;3.25;;;2.95;;
41897;SDS011;27576;53.366;-1.498;2023-08-06T06:46:06;7.40;;;3.28;;
41897;SDS011;27576;53.366;-1.498;2023-08-06T06:48:32;3.47;;;2.85;;
41897;SDS011;27576;53.366;-1.498;2023-08-06T06:50:58;4.30;;;2.80;;
41897;SDS011;27576;53.366;-1.498;2023-08-06T06:53:24;5.93;;;3.50;;
41897;SDS011;27576;53.366;-1.498;2023-08-06T06:56:03;4.70;;;2.95;;
41897;SDS011;27576;53.366;-1.498;2023-08-06T06:58:29;3.15;;;2.70;;
41897;SDS011;27576;53.366;-1.498;2023-08-06T07:00:58;3.00;;;2.70;;
41897;SDS011;27576;53.366;-1.498;2023-08-06T07:03:23;5.40;;;3.33;;
41897;SDS011;27576;53.366;-1.498;2023-08-06T07:05:49;3.20;;;2.72;;
41897;SDS011;27576;53.366;-1.498;2023-08-06T07:08:15;6.88;;;2.83;;
41897;SDS011;27576;53.366;-1.498;2023-08-06T07:10:41;3.72;;;2.83;;
41897;SDS011;27576;53.366;-1.498;2023-08-06T07:13:07;3.33;;;2.92;;
41897;SDS011;27576;53.366;-1.498;2023-08-06T07:15:33;3.47;;;2.85;;
41897;SDS011;27576;53.366;-1.498;2023-08-06T07:17:58;4.38;;;2.83;;
41897;SDS011;27576;53.366;-1.498;2023-08-06T07:20:24;4.10;;;3.15;;
41897;SDS011;27576;53.366;-1.498;2023-08-06T07:22:49;3.78;;;2.70;;
41897;SDS011;27576;53.366;-1.498;2023-08-06T07:25:15;3.03;;;2.40;;
41897;SDS011;27576;53.366;-1.498;2023-08-06T07:27:41;4.28;;;2.50;;
41897;SDS011;27576;53.366;-1.498;2023-08-06T07:30:06;8.93;;;2.78;;
41897;SDS011;27576;53.366;-1.498;2023-08-06T07:32:32;11.70;;;2.90;;
41897;SDS011;27576;53.366;-1.498;2023-08-06T07:34:57;2.75;;;2.55;;
41897;SDS011;27576;53.366;-1.498;2023-08-06T07:37:25;6.25;;;2.60;;
41897;SDS011;27576;53.366;-1.498;2023-08-06T07:39:53;6.10;;;2.40;;
41897;SDS011;27576;53.366;-1.498;2023-08-06T07:42:19;2.70;;;2.50;;
41897;SDS011;27576;53.366;-1.498;2023-08-06T07:44:49;3.58;;;2.78;;
41897;SDS011;27576;53.366;-1.498;2023-08-06T07:47:17;3.28;;;2.80;;
41897;SDS011;27576;53.366;-1.498;2023-08-06T07:49:42;4.10;;;2.60;;
41897;SDS011;27576;53.366;-1.498;2023-08-06T07:52:07;5.15;;;2.72;;
41897;SDS011;27576;53.366;-1.498;2023-08-06T07:54:33;3.58;;;2.42;;
41897;SDS011;27576;53.366;-1.498;2023-08-06T07:56:58;3.90;;;2.65;;
41897;SDS011;27576;53.366;-1.498;2023-08-06T07:59:23;2.38;;;2.17;;
41897;SDS011;27576;53.366;-1.498;2023-08-06T08:01:49;3.40;;;2.50;;
41897;SDS011;27576;53.366;-1.498;2023-08-06T08:04:14;4.60;;;2.53;;
41897;SDS011;27576;53.366;-1.498;2023-08-06T08:06:39;3.47;;;2.22;;
41897;SDS011;27576;53.366;-1.498;2023-08-06T08:09:04;2.67;;;2.42;;
41897;SDS011;27576;53.366;-1.498;2023-08-06T08:11:30;2.67;;;2.28;;
41897;SDS011;27576;53.366;-1.498;2023-08-06T08:13:55;2.50;;;2.20;;
41897;SDS011;27576;53.366;-1.498;2023-08-06T08:16:20;3.50;;;2.45;;
41897;SDS011;27576;53.366;-1.498;2023-08-06T08:18:46;4.05;;;2.40;;
41897;SDS011;27576;53.366;-1.498;2023-08-06T08:21:11;3.20;;;2.30;;
41897;SDS011;27576;53.366;-1.498;2023-08-06T08:23:36;2.63;;;2.17;;
41897;SDS011;27576;53.366;-1.498;2023-08-06T08:26:03;4.47;;;2.22;;
41897;SDS011;27576;53.366;-1.498;2023-08-06T08:28:29;3.13;;;2.72;;
41897;SDS011;27576;53.366;-1.498;2023-08-06T08:30:55;4.75;;;2.67;;
41897;SDS011;27576;53.366;-1.498;2023-08-06T08:33:21;3.13;;;2.75;;
41897;SDS011;27576;53.366;-1.498;2023-08-06T08:35:46;3.30;;;2.70;;
41897;SDS011;27576;53.366;-1.498;2023-08-06T08:38:12;5.85;;;2.67;;
41897;SDS011;27576;53.366;-1.498;2023-08-06T08:40:39;2.88;;;2.10;;
41897;SDS011;27576;53.366;-1.498;2023-08-06T08:43:12;3.25;;;2.30;;
41897;SDS011;27576;53.366;-1.498;2023-08-06T08:45:39;3.42;;;2.20;;
41897;SDS011;27576;53.366;-1.498;2023-08-06T08:48:08;3.88;;;2.60;;
41897;SDS011;27576;53.366;-1.498;2023-08-06T08:50:37;4.65;;;2.45;;
41897;SDS011;27576;53.366;-1.498;2023-08-06T08:53:04;2.90;;;2.30;;
41897;SDS011;27576;53.366;-1.498;2023-08-06T08:55:30;2.80;;;2.60;;
41897;SDS011;27576;53.366;-1.498;2023-08-06T08:57:56;3.00;;;2.33;;
41897;SDS011;27576;53.366;-1.498;2023-08-06T09:00:22;5.80;;;2.53;;
41897;SDS011;27576;53.366;-1.498;2023-08-06T09:02:47;4.47;;;2.13;;
41897;SDS011;27576;53.366;-1.498;2023-08-06T09:05:13;3.63;;;2.60;;
41897;SDS011;27576;53.366;-1.498;2023-08-06T09:07:43;3.58;;;2.47;;
41897;SDS011;27576;53.366;-1.498;2023-08-06T09:10:14;6.00;;;2.60;;
41897;SDS011;27576;53.366;-1.498;2023-08-06T09:12:43;2.30;;;2.10;;
41897;SDS011;27576;53.366;-1.498;2023-08-06T09:15:09;2.60;;;2.40;;
41897;SDS011;27576;53.366;-1.498;2023-08-06T09:17:35;2.60;;;2.30;;
41897;SDS011;27576;53.366;-1.498;2023-08-06T09:20:11;2.78;;;2.50;;
41897;SDS011;27576;53.366;-1.498;2023-08-06T09:22:37;3.95;;;2.60;;
41897;SDS011;27576;53.366;-1.498;2023-08-06T09:25:03;2.92;;;2.65;;
41897;SDS011;27576;53.366;-1.498;2023-08-06T09:27:31;2.90;;;2.55;;
41897;SDS011;27576;53.366;-1.498;2023-08-06T09:29:56;4.38;;;2.60;;
41897;SDS011;27576;53.366;-1.498;2023-08-06T09:32:21;2.38;;;2.17;;
41897;SDS011;27576;53.366;-1.498;2023-08-06T09:34:47;2.80;;;2.40;;
41897;SDS011;27576;53.366;-1.498;2023-08-06T09:37:21;2.50;;;2.30;;
41897;SDS011;27576;53.366;-1.498;2023-08-06T09:39:47;6.28;;;2.35;;
41897;SDS011;27576;53.366;-1.498;2023-08-06T09:42:14;4.82;;;2.28;;
41897;SDS011;27576;53.366;-1.498;2023-08-06T09:44:40;2.38;;;2.13;;
41897;SDS011;27576;53.366;-1.498;2023-08-06T09:47:06;4.18;;;2.30;;
41897;SDS011;27576;53.366;-1.498;2023-08-06T09:51:56;5.97;;;2.50;;
41897;SDS011;27576;53.366;-1.498;2023-08-06T09:54:24;2.65;;;2.22;;
41897;SDS011;27576;53.366;-1.498;2023-08-06T09:56:52;2.67;;;2.30;;
41897;SDS011;27576;53.366;-1.498;2023-08-06T09:59:18;2.25;;;2.00;;
41897;SDS011;27576;53.366;-1.498;2023-08-06T10:01:43;2.60;;;2.17;;
41897;SDS011;27576;53.366;-1.498;2023-08-06T10:04:10;2.40;;;2.10;;
41897;SDS011;27576;53.366;-1.498;2023-08-06T10:06:38;3.05;;;2.10;;
41897;SDS011;27576;53.366;-1.498;2023-08-06T10:09:03;3.33;;;2.22;;
41897;SDS011;27576;53.366;-1.498;2023-08-06T10:11:30;3.15;;;2.50;;
41897;SDS011;27576;53.366;-1.498;2023-08-06T10:14:00;2.72;;;2.10;;
41897;SDS011;27576;53.366;-1.498;2023-08-06T10:16:30;2.47;;;1.98;;
41897;SDS011;27576;53.366;-1.498;2023-08-06T10:18:57;2.88;;;2.42;;
41897;SDS011;27576;53.366;-1.498;2023-08-06T10:21:23;3.35;;;2.13;;
41897;SDS011;27576;53.366;-1.498;2023-08-06T10:23:53;2.75;;;2.10;;
41897;SDS011;27576;53.366;-1.498;2023-08-06T10:26:19;4.03;;;2.40;;
41897;SDS011;27576;53.366;-1.498;2023-08-06T10:28:45;2.70;;;2.00;;
41897;SDS011;27576;53.366;-1.498;2023-08-06T10:31:10;2.83;;;2.20;;
41897;SDS011;27576;53.366;-1.498;2023-08-06T10:33:43;4.03;;;1.88;;
41897;SDS011;27576;53.366;-1.498;2023-08-06T10:36:12;2.08;;;1.90;;
41897;SDS011;27576;53.366;-1.498;2023-08-06T10:38:44;1.63;;;1.52;;
41897;SDS011;27576;53.366;-1.498;2023-08-06T10:41:29;2.25;;;2.05;;
41897;SDS011;27576;53.366;-1.498;2023-08-06T10:44:07;2.65;;;2.22;;
41897;SDS011;27576;53.366;-1.498;2023-08-06T10:46:33;3.50;;;2.17;;
41897;SDS011;27576;53.366;-1.498;2023-08-06T10:48:59;2.72;;;2.00;;
41897;SDS011;27576;53.366;-1.498;2023-08-06T10:51:25;2.25;;;1.73;;
41897;SDS011;27576;53.366;-1.498;2023-08-06T10:53:52;2.78;;;1.90;;
41897;SDS011;27576;53.366;-1.498;2023-08-06T10:56:19;3.15;;;2.00;;
41897;SDS011;27576;53.366;-1.498;2023-08-06T10:58:47;2.17;;;1.85;;
41897;SDS011;27576;53.366;-1.498;2023-08-06T11:01:14;3.25;;;1.88;;
41897;SDS011;27576;53.366;-1.498;2023-08-06T11:03:40;2.28;;;1.92;;
41897;SDS011;27576;53.366;-1.498;2023-08-06T11:06:07;1.80;;;1.70;;
41897;SDS011;27576;53.366;-1.498;2023-08-06T11:08:34;3.45;;;2.00;;
41897;SDS011;27576;53.366;-1.498;2023-08-06T11:11:07;2.13;;;1.77;;
41897;SDS011;27576;53.366;-1.498;2023-08-06T11:13:41;2.33;;;2.05;;
41897;SDS011;27576;53.366;-1.498;2023-08-06T11:16:07;2.05;;;1.60;;
41897;SDS011;27576;53.366;-1.498;2023-08-06T11:18:33;2.42;;;1.52;;
41897;SDS011;27576;53.366;-1.498;2023-08-06T11:20:59;1.88;;;1.77;;
41897;SDS011;27576;53.366;-1.498;2023-08-06T11:23:28;2.65;;;1.90;;
41897;SDS011;27576;53.366;-1.498;2023-08-06T11:25:54;2.83;;;1.65;;
41897;SDS011;27576;53.366;-1.498;2023-08-06T11:28:21;2.28;;;1.52;;
41897;SDS011;27576;53.366;-1.498;2023-08-06T11:30:49;2.00;;;1.52;;
41897;SDS011;27576;53.366;-1.498;2023-08-06T11:33:24;1.63;;;1.52;;
41897;SDS011;27576;53.366;-1.498;2023-08-06T11:35:51;4.20;;;1.63;;
41897;SDS011;27576;53.366;-1.498;2023-08-06T11:38:17;2.33;;;1.52;;
41897;SDS011;27576;53.366;-1.498;2023-08-06T11:40:46;2.10;;;1.40;;
41897;SDS011;27576;53.366;-1.498;2023-08-06T11:43:12;2.28;;;1.30;;
41897;SDS011;27576;53.366;-1.498;2023-08-06T11:45:38;1.77;;;1.60;;
41897;SDS011;27576;53.366;-1.498;2023-08-06T11:48:05;2.35;;;1.63;;
41897;SDS011;27576;53.366;-1.498;2023-08-06T11:50:30;1.83;;;1.67;;
41897;SDS011;27576;53.366;-1.498;2023-08-06T11:52:56;1.70;;;1.60;;
41897;SDS011;27576;53.366;-1.498;2023-08-06T11:55:24;1.77;;;1.38;;
41897;SDS011;27576;53.366;-1.498;2023-08-06T11:57:50;2.03;;;1.75;;
41897;SDS011;27576;53.366;-1.498;2023-08-06T12:00:16;2.08;;;1.70;;
41897;SDS011;27576;53.366;-1.498;2023-08-06T12:02:43;3.50;;;1.50;;
41897;SDS011;27576;53.366;-1.498;2023-08-06T12:05:10;1.50;;;1.40;;
41897;SDS011;27576;53.366;-1.498;2023-08-06T12:07:38;2.38;;;1.52;;
41897;SDS011;27576;53.366;-1.498;2023-08-06T12:10:06;1.73;;;1.50;;
41897;SDS011;27576;53.366;-1.498;2023-08-06T12:12:32;2.28;;;1.42;;
41897;SDS011;27576;53.366;-1.498;2023-08-06T12:14:58;1.50;;;1.40;;
41897;SDS011;27576;53.366;-1.498;2023-08-06T12:17:24;2.05;;;1.73;;
41897;SDS011;27576;53.366;-1.498;2023-08-06T12:19:49;1.38;;;1.27;;
41897;SDS011;27576;53.366;-1.498;2023-08-06T12:22:15;2.28;;;1.73;;
41897;SDS011;27576;53.366;-1.498;2023-08-06T12:24:45;1.98;;;1.60;;
41897;SDS011;27576;53.366;-1.498;2023-08-06T12:27:11;2.72;;;1.85;;
41897;SDS011;27576;53.366;-1.498;2023-08-06T12:29:39;1.77;;;1.17;;
41897;SDS011;27576;53.366;-1.498;2023-08-06T12:32:06;1.65;;;1.40;;
41897;SDS011;27576;53.366;-1.498;2023-08-06T12:34:31;1.98;;;1.20;;
41897;SDS011;27576;53.366;-1.498;2023-08-06T12:36:56;1.70;;;1.50;;
41897;SDS011;27576;53.366;-1.498;2023-08-06T12:39:22;1.85;;;1.38;;
41897;SDS011;27576;53.366;-1.498;2023-08-06T12:41:47;1.73;;;1.45;;
41897;SDS011;27576;53.366;-1.498;2023-08-06T12:44:13;2.15;;;1.30;;
41897;SDS011;27576;53.366;-1.498;2023-08-06T12:46:39;1.80;;;1.20;;
41897;SDS011;27576;53.366;-1.498;2023-08-06T12:49:04;2.15;;;1.17;;
41897;SDS011;27576;53.366;-1.498;2023-08-06T12:51:30;1.52;;;1.35;;
41897;SDS011;27576;53.366;-1.498;2023-08-06T12:53:56;2.30;;;1.58;;
41897;SDS011;27576;53.366;-1.498;2023-08-06T12:56:21;3.00;;;1.33;;
41897;SDS011;27576;53.366;-1.498;2023-08-06T12:58:46;2.05;;;1.40;;
41897;SDS011;27576;53.366;-1.498;2023-08-06T13:01:12;1.25;;;1.15;;
41897;SDS011;27576;53.366;-1.498;2023-08-06T13:03:37;1.35;;;1.10;;
41897;SDS011;27576;53.366;-1.498;2023-08-06T13:06:02;2.38;;;1.48;;
41897;SDS011;27576;53.366;-1.498;2023-08-06T13:08:28;2.17;;;1.50;;
41897;SDS011;27576;53.366;-1.498;2023-08-06T13:10:53;1.27;;;1.17;;
41897;SDS011;27576;53.366;-1.498;2023-08-06T13:13:19;1.40;;;1.30;;
41897;SDS011;27576;53.366;-1.498;2023-08-06T13:15:44;1.88;;;1.50;;
41897;SDS011;27576;53.366;-1.498;2023-08-06T13:18:10;1.45;;;1.35;;
41897;SDS011;27576;53.366;-1.498;2023-08-06T13:20:37;1.48;;;1.38;;
41897;SDS011;27576;53.366;-1.498;2023-08-06T13:23:04;2.05;;;1.75;;
41897;SDS011;27576;53.366;-1.498;2023-08-06T13:25:29;4.43;;;1.50;;
41897;SDS011;27576;53.366;-1.498;2023-08-06T13:27:54;1.60;;;1.50;;
41897;SDS011;27576;53.366;-1.498;2023-08-06T13:30:20;3.20;;;1.98;;
41897;SDS011;27576;53.366;-1.498;2023-08-06T13:32:45;2.10;;;1.52;;
41897;SDS011;27576;53.366;-1.498;2023-08-06T13:35:11;2.00;;;1.55;;
41897;SDS011;27576;53.366;-1.498;2023-08-06T13:37:37;2.13;;;1.52;;
41897;SDS011;27576;53.366;-1.498;2023-08-06T13:40:02;3.25;;;1.70;;
41897;SDS011;27576;53.366;-1.498;2023-08-06T13:42:28;1.58;;;1.48;;
41897;SDS011;27576;53.366;-1.498;2023-08-06T13:44:54;1.70;;;1.60;;
41897;SDS011;27576;53.366;-1.498;2023-08-06T13:47:24;1.80;;;1.50;;
41897;SDS011;27576;53.366;-1.498;2023-08-06T13:49:50;4.00;;;2.10;;
41897;SDS011;27576;53.366;-1.498;2023-08-06T13:52:15;2.78;;;2.20;;
41897;SDS011;27576;53.366;-1.498;2023-08-06T13:54:40;2.65;;;2.13;;
41897;SDS011;27576;53.366;-1.498;2023-08-06T13:57:06;2.83;;;2.03;;
41897;SDS011;27576;53.366;-1.498;2023-08-06T13:59:31;4.75;;;1.95;;
41897;SDS011;27576;53.366;-1.498;2023-08-06T14:01:57;2.22;;;1.83;;
41897;SDS011;27576;53.366;-1.498;2023-08-06T14:04:24;2.33;;;1.80;;
41897;SDS011;27576;53.366;-1.498;2023-08-06T14:06:50;2.20;;;2.00;;
41897;SDS011;27576;53.366;-1.498;2023-08-06T14:09:15;2.45;;;2.00;;
41897;SDS011;27576;53.366;-1.498;2023-08-06T14:11:43;3.03;;;2.00;;
41897;SDS011;27576;53.366;-1.498;2023-08-06T14:14:09;4.18;;;1.88;;
41897;SDS011;27576;53.366;-1.498;2023-08-06T14:16:35;2.15;;;1.90;;
41897;SDS011;27576;53.366;-1.498;2023-08-06T14:19:01;2.47;;;1.73;;
41897;SDS011;27576;53.366;-1.498;2023-08-06T14:21:27;2.10;;;1.90;;
41897;SDS011;27576;53.366;-1.498;2023-08-06T14:23:52;3.53;;;2.10;;
41897;SDS011;27576;53.366;-1.498;2023-08-06T14:26:17;5.00;;;2.05;;
41897;SDS011;27576;53.366;-1.498;2023-08-06T14:28:43;2.05;;;1.83;;
41897;SDS011;27576;53.366;-1.498;2023-08-06T14:31:08;3.75;;;2.10;;
41897;SDS011;27576;53.366;-1.498;2023-08-06T14:33:34;7.28;;;4.57;;
41897;SDS011;27576;53.366;-1.498;2023-08-06T14:35:59;10.90;;;5.63;;
41897;SDS011;27576;53.366;-1.498;2023-08-06T14:38:24;3.42;;;2.90;;
41897;SDS011;27576;53.366;-1.498;2023-08-06T14:40:50;3.17;;;2.40;;